createdAt,value
2019-03-22T00:00:26.267Z,9.72
2019-03-22T00:01:26.246Z,9.78
2019-03-22T00:02:26.221Z,9.81
2019-03-22T00:03:26.213Z,9.84
2019-03-22T00:04:26.204Z,9.78
2019-03-22T00:05:26.195Z,9.84
2019-03-22T00:06:26.186Z,9.89
2019-03-22T00:07:26.168Z,9.83
2019-03-22T00:08:26.159Z,9.81
2019-03-22T00:09:26.148Z,9.84
2019-03-22T00:10:26.132Z,9.81
2019-03-22T00:11:26.151Z,9.83
2019-03-22T00:12:26.150Z,9.86
2019-03-22T00:13:26.097Z,9.75
2019-03-22T00:14:26.100Z,9.65
2019-03-22T00:15:26.100Z,9.68
2019-03-22T00:16:26.082Z,9.68
2019-03-22T00:17:26.069Z,9.68
2019-03-22T00:18:26.042Z,9.65
2019-03-22T00:19:26.038Z,9.72
2019-03-22T00:20:26.020Z,9.71
2019-03-22T00:21:26.010Z,9.74
2019-03-22T00:22:26.016Z,9.69
2019-03-22T00:23:25.995Z,9.61
2019-03-22T00:24:25.979Z,9.65
2019-03-22T00:25:25.968Z,9.74
2019-03-22T00:26:25.960Z,9.68
2019-03-22T00:27:25.946Z,9.64
2019-03-22T00:28:25.949Z,9.69
2019-03-22T00:29:25.944Z,9.74
2019-03-22T00:30:25.914Z,9.65
2019-03-22T00:31:25.896Z,9.71
2019-03-22T00:32:25.887Z,9.61
2019-03-22T00:33:25.891Z,9.69
2019-03-22T00:34:25.899Z,9.68
2019-03-22T00:35:25.851Z,9.74
2019-03-22T00:36:25.843Z,9.69
2019-03-22T00:37:25.830Z,9.66
2019-03-22T00:38:25.841Z,9.68
2019-03-22T00:39:25.826Z,9.69
2019-03-22T00:40:25.808Z,9.61
2019-03-22T00:41:25.783Z,9.65
2019-03-22T00:42:25.798Z,9.66
2019-03-22T00:43:25.771Z,9.71
2019-03-22T00:44:25.785Z,9.68
2019-03-22T00:45:25.761Z,9.58
2019-03-22T00:46:25.728Z,9.58
2019-03-22T00:47:25.715Z,9.68
2019-03-22T00:48:25.703Z,9.68
2019-03-22T00:49:25.702Z,9.66
2019-03-22T00:50:25.691Z,9.66
2019-03-22T00:51:25.693Z,9.66
2019-03-22T00:52:25.666Z,9.71
2019-03-22T00:53:25.650Z,9.64
2019-03-22T00:54:25.667Z,9.64
2019-03-22T00:55:25.622Z,9.68
2019-03-22T00:56:25.618Z,9.65
2019-03-22T00:57:28.803Z,9.65
2019-03-22T00:58:25.593Z,9.69
2019-03-22T00:59:25.578Z,9.68
2019-03-22T01:00:25.601Z,9.68
2019-03-22T01:01:25.571Z,9.71
2019-03-22T01:02:25.545Z,9.69
2019-03-22T01:03:25.537Z,9.68
2019-03-22T01:04:25.527Z,9.65
2019-03-22T01:05:25.515Z,9.66
2019-03-22T01:06:25.508Z,9.69
2019-03-22T01:07:25.511Z,9.66
2019-03-22T01:08:25.488Z,9.74
2019-03-22T01:09:25.477Z,9.68
2019-03-22T01:10:25.457Z,9.64
2019-03-22T01:11:25.444Z,9.60
2019-03-22T01:12:25.434Z,9.69
2019-03-22T01:13:25.458Z,9.71
2019-03-22T01:14:25.414Z,9.71
2019-03-22T01:15:25.401Z,9.68
2019-03-22T01:16:25.401Z,9.69
2019-03-22T01:17:25.375Z,9.61
2019-03-22T01:18:25.378Z,9.53
2019-03-22T01:19:25.356Z,9.60
2019-03-22T01:20:25.356Z,9.51
2019-03-22T01:21:25.333Z,9.51
2019-03-22T01:22:25.321Z,9.50
2019-03-22T01:23:25.312Z,9.46
2019-03-22T01:24:25.311Z,9.51
2019-03-22T01:25:25.299Z,9.39
2019-03-22T01:26:25.274Z,9.32
2019-03-22T01:27:25.263Z,9.31
2019-03-22T01:28:25.258Z,9.38
2019-03-22T01:29:25.259Z,9.32
2019-03-22T01:30:25.233Z,9.36
2019-03-22T01:31:25.220Z,9.32
2019-03-22T01:32:25.209Z,9.33
2019-03-22T01:33:25.199Z,9.35
2019-03-22T01:34:25.188Z,9.38
2019-03-22T01:35:25.193Z,9.32
2019-03-22T01:36:25.162Z,9.31
2019-03-22T01:37:25.160Z,9.31
2019-03-22T01:38:25.145Z,9.21
2019-03-22T01:39:25.140Z,9.38
2019-03-22T01:40:25.120Z,9.23
2019-03-22T01:41:25.103Z,9.33
2019-03-22T01:42:25.102Z,9.23
2019-03-22T01:43:25.115Z,9.24
2019-03-22T01:44:25.077Z,9.21
2019-03-22T01:45:25.066Z,9.28
2019-03-22T01:46:25.062Z,9.23
2019-03-22T01:47:25.039Z,9.31
2019-03-22T01:48:25.038Z,9.20
2019-03-22T01:49:25.074Z,9.14
2019-03-22T01:50:25.026Z,9.17
2019-03-22T01:51:24.993Z,9.14
2019-03-22T01:52:24.981Z,9.14
2019-03-22T01:53:24.970Z,9.11
2019-03-22T01:54:24.961Z,9.10
2019-03-22T01:55:24.948Z,9.11
2019-03-22T01:56:24.935Z,9.02
2019-03-22T01:57:24.936Z,9.08
2019-03-22T01:58:24.911Z,8.99
2019-03-22T01:59:24.900Z,9.02
2019-03-22T02:00:24.896Z,8.96
2019-03-22T02:01:24.904Z,9.11
2019-03-22T02:02:24.867Z,8.99
2019-03-22T02:03:24.881Z,9.04
2019-03-22T02:04:24.851Z,8.96
2019-03-22T02:05:24.863Z,8.99
2019-03-22T02:06:24.821Z,8.96
2019-03-22T02:07:24.821Z,9.04
2019-03-22T02:08:24.812Z,8.92
2019-03-22T02:09:24.797Z,8.95
2019-03-22T02:10:24.777Z,8.91
2019-03-22T02:11:24.806Z,8.94
2019-03-22T02:12:24.758Z,8.95
2019-03-22T02:13:24.749Z,8.95
2019-03-22T02:14:24.749Z,8.95
2019-03-22T02:15:24.728Z,8.99
2019-03-22T02:16:24.761Z,8.94
2019-03-22T02:17:24.699Z,9.02
2019-03-22T02:18:24.689Z,8.94
2019-03-22T02:19:24.695Z,8.94
2019-03-22T02:20:24.674Z,9.01
2019-03-22T02:21:24.650Z,8.98
2019-03-22T02:22:24.642Z,8.94
2019-03-22T02:23:24.647Z,8.95
2019-03-22T02:24:24.644Z,8.98
2019-03-22T02:25:24.632Z,8.94
2019-03-22T02:26:24.595Z,8.95
2019-03-22T02:27:24.592Z,8.95
2019-03-22T02:28:24.578Z,8.94
2019-03-22T02:29:24.584Z,8.91
2019-03-22T02:30:24.584Z,8.89
2019-03-22T02:31:24.541Z,8.92
2019-03-22T02:32:24.529Z,8.91
2019-03-22T02:33:24.532Z,8.91
2019-03-22T02:34:24.507Z,8.87
2019-03-22T02:35:29.083Z,8.84
2019-03-22T02:36:25.498Z,8.89
2019-03-22T02:37:24.473Z,8.87
2019-03-22T02:38:24.467Z,8.84
2019-03-22T02:39:24.639Z,8.76
2019-03-22T02:40:24.517Z,8.80
2019-03-22T02:41:24.555Z,8.79
2019-03-22T02:42:24.449Z,8.77
2019-03-22T02:43:24.413Z,8.79
2019-03-22T02:44:24.400Z,8.76
2019-03-22T02:45:24.400Z,8.61
2019-03-22T02:46:24.391Z,8.66
2019-03-22T02:47:24.358Z,8.59
2019-03-22T02:48:24.349Z,8.61
2019-03-22T02:49:24.354Z,8.56
2019-03-22T02:50:24.331Z,8.47
2019-03-22T02:51:24.354Z,8.55
2019-03-22T02:52:24.312Z,8.52
2019-03-22T02:53:24.298Z,8.37
2019-03-22T02:54:24.293Z,8.41
2019-03-22T02:55:24.308Z,8.41
2019-03-22T02:56:24.263Z,8.40
2019-03-22T02:57:24.251Z,8.40
2019-03-22T02:58:24.240Z,8.37
2019-03-22T02:59:24.224Z,8.44
2019-03-22T03:00:24.220Z,8.37
2019-03-22T03:01:24.246Z,8.33
2019-03-22T03:02:24.194Z,8.37
2019-03-22T03:03:24.198Z,8.40
2019-03-22T03:04:24.172Z,8.36
2019-03-22T03:05:24.167Z,8.26
2019-03-22T03:06:24.151Z,8.33
2019-03-22T03:07:24.143Z,8.26
2019-03-22T03:08:24.142Z,8.28
2019-03-22T03:09:24.124Z,8.23
2019-03-22T03:10:24.103Z,8.23
2019-03-22T03:11:24.096Z,8.25
2019-03-22T03:12:24.082Z,8.25
2019-03-22T03:13:24.077Z,8.20
2019-03-22T03:14:24.066Z,8.29
2019-03-22T03:15:24.066Z,8.16
2019-03-22T03:16:24.076Z,8.22
2019-03-22T03:17:24.022Z,8.15
2019-03-22T03:18:24.012Z,8.15
2019-03-22T03:19:24.011Z,8.12
2019-03-22T03:20:24.024Z,8.12
2019-03-22T03:21:23.988Z,8.15
2019-03-22T03:22:23.969Z,8.18
2019-03-22T03:23:23.958Z,8.12
2019-03-22T03:24:23.946Z,8.18
2019-03-22T03:25:23.952Z,8.16
2019-03-22T03:26:23.935Z,8.15
2019-03-22T03:27:23.939Z,8.11
2019-03-22T03:28:36.123Z,8.05
2019-03-22T03:29:24.891Z,8.10
2019-03-22T03:30:23.895Z,8.08
2019-03-22T03:31:23.888Z,8.08
2019-03-22T03:32:23.856Z,8.07
2019-03-22T03:33:23.848Z,8.04
2019-03-22T03:34:23.836Z,8.01
2019-03-22T03:35:23.835Z,8.01
2019-03-22T03:36:23.832Z,7.87
2019-03-22T03:37:23.812Z,7.95
2019-03-22T03:38:23.792Z,7.92
2019-03-22T03:39:23.778Z,8.01
2019-03-22T03:40:23.777Z,7.92
2019-03-22T03:41:23.760Z,7.90
2019-03-22T03:42:23.765Z,7.92
2019-03-22T03:43:23.735Z,7.87
2019-03-22T03:44:23.731Z,7.86
2019-03-22T03:45:23.733Z,7.82
2019-03-22T03:46:23.698Z,7.79
2019-03-22T03:47:23.687Z,7.80
2019-03-22T03:48:23.676Z,7.85
2019-03-22T03:49:23.671Z,7.74
2019-03-22T03:50:23.657Z,7.82
2019-03-22T03:51:23.648Z,7.77
2019-03-22T03:52:23.647Z,7.71
2019-03-22T03:53:23.626Z,7.79
2019-03-22T03:54:23.627Z,7.67
2019-03-22T03:55:23.608Z,7.64
2019-03-22T03:56:23.614Z,7.67
2019-03-22T03:57:23.575Z,7.63
2019-03-22T03:58:23.584Z,7.58
2019-03-22T03:59:23.565Z,7.64
2019-03-22T04:00:23.553Z,7.64
2019-03-22T04:01:23.565Z,7.63
2019-03-22T04:02:23.517Z,7.67
2019-03-22T04:03:23.508Z,7.60
2019-03-22T04:04:23.506Z,7.63
2019-03-22T04:05:23.486Z,7.63
2019-03-22T04:06:23.518Z,7.63
2019-03-22T04:07:23.463Z,7.67
2019-03-22T04:08:23.455Z,7.67
2019-03-22T04:09:23.452Z,7.72
2019-03-22T04:10:23.436Z,7.64
2019-03-22T04:11:23.420Z,7.64
2019-03-22T04:12:23.409Z,7.68
2019-03-22T04:13:23.397Z,7.60
2019-03-22T04:14:23.389Z,7.63
2019-03-22T04:15:23.395Z,7.64
2019-03-22T04:16:23.371Z,7.64
2019-03-22T04:17:23.346Z,7.57
2019-03-22T04:18:23.353Z,7.53
2019-03-22T04:19:23.327Z,7.53
2019-03-22T04:20:23.325Z,7.49
2019-03-22T04:21:23.336Z,7.45
2019-03-22T04:22:23.301Z,7.40
2019-03-22T04:23:23.293Z,7.39
2019-03-22T04:24:23.286Z,7.50
2019-03-22T04:25:23.269Z,7.43
2019-03-22T04:26:23.295Z,7.46
2019-03-22T04:27:23.235Z,7.42
2019-03-22T04:28:23.237Z,7.34
2019-03-22T04:29:23.223Z,7.37
2019-03-22T04:30:23.198Z,7.32
2019-03-22T04:31:23.197Z,7.40
2019-03-22T04:32:23.190Z,7.35
2019-03-22T04:33:23.178Z,7.28
2019-03-22T04:34:23.163Z,7.30
2019-03-22T04:35:23.163Z,7.27
2019-03-22T04:36:23.138Z,7.27
2019-03-22T04:37:23.119Z,7.27
2019-03-22T04:38:23.113Z,7.16
2019-03-22T04:39:23.100Z,7.20
2019-03-22T04:40:23.089Z,7.17
2019-03-22T04:41:23.089Z,7.20
2019-03-22T04:42:23.063Z,7.21
2019-03-22T04:43:23.062Z,7.16
2019-03-22T04:44:23.045Z,7.21
2019-03-22T04:45:23.041Z,7.28
2019-03-22T04:46:23.024Z,7.16
2019-03-22T04:47:23.007Z,7.20
2019-03-22T04:48:22.998Z,7.23
2019-03-22T04:49:22.994Z,7.16
2019-03-22T04:50:22.975Z,7.17
2019-03-22T04:51:22.966Z,7.16
2019-03-22T04:52:22.966Z,7.17
2019-03-22T04:53:22.945Z,7.13
2019-03-22T04:54:22.929Z,7.13
2019-03-22T04:55:22.920Z,7.15
2019-03-22T04:56:22.925Z,7.13
2019-03-22T04:57:22.913Z,7.09
2019-03-22T04:58:22.924Z,7.15
2019-03-22T04:59:22.882Z,7.12
2019-03-22T05:00:22.892Z,6.97
2019-03-22T05:01:22.861Z,7.06
2019-03-22T05:02:22.843Z,7.09
2019-03-22T05:03:22.851Z,6.99
2019-03-22T05:04:22.818Z,7.05
2019-03-22T05:05:22.829Z,6.95
2019-03-22T05:06:22.850Z,7.05
2019-03-22T05:07:22.786Z,7.06
2019-03-22T05:08:22.775Z,7.03
2019-03-22T05:09:22.766Z,7.03
2019-03-22T05:10:22.756Z,7.02
2019-03-22T05:11:22.778Z,6.99
2019-03-22T05:12:22.771Z,6.99
2019-03-22T05:13:22.734Z,6.97
2019-03-22T05:14:22.720Z,7.03
2019-03-22T05:15:22.707Z,6.95
2019-03-22T05:16:22.715Z,6.97
2019-03-22T05:17:22.674Z,6.98
2019-03-22T05:18:22.667Z,6.95
2019-03-22T05:19:22.650Z,6.92
2019-03-22T05:20:22.657Z,7.02
2019-03-22T05:21:22.647Z,7.02
2019-03-22T05:22:22.621Z,7.06
2019-03-22T05:23:22.615Z,6.98
2019-03-22T05:24:22.598Z,7.05
2019-03-22T05:25:22.586Z,6.94
2019-03-22T05:26:22.588Z,7.03
2019-03-22T05:27:22.573Z,7.02
2019-03-22T05:28:22.599Z,7.03
2019-03-22T05:29:30.509Z,7.05
2019-03-22T05:30:23.545Z,6.97
2019-03-22T05:31:22.519Z,7.12
2019-03-22T05:32:22.517Z,7.09
2019-03-22T05:33:22.508Z,7.07
2019-03-22T05:34:22.487Z,7.10
2019-03-22T05:35:22.471Z,7.16
2019-03-22T05:36:22.471Z,7.21
2019-03-22T05:37:22.468Z,7.21
2019-03-22T05:38:22.440Z,7.16
2019-03-22T05:39:22.443Z,7.17
2019-03-22T05:40:22.415Z,7.16
2019-03-22T05:41:22.404Z,7.13
2019-03-22T05:42:22.434Z,7.10
2019-03-22T05:43:22.406Z,7.16
2019-03-22T05:44:22.382Z,7.17
2019-03-22T05:45:22.362Z,7.17
2019-03-22T05:46:22.349Z,7.17
2019-03-22T05:47:22.348Z,7.25
2019-03-22T05:48:22.336Z,7.15
2019-03-22T05:49:22.318Z,7.28
2019-03-22T05:50:22.314Z,7.34
2019-03-22T05:51:22.294Z,7.31
2019-03-22T05:52:22.359Z,7.30
2019-03-22T05:53:22.272Z,7.27
2019-03-22T05:54:22.260Z,7.27
2019-03-22T05:55:22.258Z,7.24
2019-03-22T05:56:22.236Z,7.30
2019-03-22T05:57:22.235Z,7.21
2019-03-22T05:58:22.214Z,7.24
2019-03-22T05:59:22.205Z,7.20
2019-03-22T06:00:22.195Z,7.27
2019-03-22T06:01:22.189Z,7.16
2019-03-22T06:02:22.194Z,7.13
2019-03-22T06:03:22.167Z,7.12
2019-03-22T06:04:22.154Z,7.13
2019-03-22T06:05:22.141Z,7.23
2019-03-22T06:06:22.145Z,7.17
2019-03-22T06:07:22.159Z,7.23
2019-03-22T06:08:22.105Z,7.17
2019-03-22T06:09:22.093Z,7.10
2019-03-22T06:10:22.080Z,7.03
2019-03-22T06:11:22.075Z,7.05
2019-03-22T06:12:22.097Z,7.03
2019-03-22T06:13:22.055Z,7.02
2019-03-22T06:14:22.040Z,6.99
2019-03-22T06:15:22.033Z,6.99
2019-03-22T06:16:22.019Z,7.05
2019-03-22T06:17:22.025Z,7.02
2019-03-22T06:18:22.004Z,7.10
2019-03-22T06:19:21.979Z,7.09
2019-03-22T06:20:21.978Z,7.10
2019-03-22T06:21:21.962Z,7.21
2019-03-22T06:22:21.945Z,7.17
2019-03-22T06:23:21.940Z,7.20
2019-03-22T06:24:22.414Z,7.13
2019-03-22T06:25:21.917Z,7.21
2019-03-22T06:26:21.904Z,7.15
2019-03-22T06:27:21.954Z,7.12
2019-03-22T06:28:21.885Z,7.02
2019-03-22T06:29:21.894Z,7.02
2019-03-22T06:30:21.865Z,7.10
2019-03-22T06:31:21.848Z,7.21
2019-03-22T06:32:21.834Z,7.17
2019-03-22T06:33:21.832Z,7.15
2019-03-22T06:34:21.811Z,7.24
2019-03-22T06:35:21.801Z,7.16
2019-03-22T06:36:24.086Z,7.32
2019-03-22T06:37:21.780Z,7.25
2019-03-22T06:38:21.775Z,7.34
2019-03-22T06:39:21.755Z,7.35
2019-03-22T06:40:21.762Z,7.35
2019-03-22T06:41:21.742Z,7.39
2019-03-22T06:42:21.731Z,7.50
2019-03-22T06:43:21.714Z,7.46
2019-03-22T06:44:21.703Z,7.35
2019-03-22T06:45:21.691Z,7.48
2019-03-22T06:46:21.722Z,7.40
2019-03-22T06:47:21.670Z,7.43
2019-03-22T06:48:21.683Z,7.43
2019-03-22T06:49:21.666Z,7.42
2019-03-22T06:50:21.667Z,7.43
2019-03-22T06:51:21.643Z,7.48
2019-03-22T06:52:21.618Z,7.50
2019-03-22T06:53:21.609Z,7.57
2019-03-22T06:54:30.972Z,7.58
2019-03-22T06:55:22.616Z,7.61
2019-03-22T06:56:21.573Z,7.61
2019-03-22T06:57:21.564Z,7.75
2019-03-22T06:58:24.097Z,7.80
2019-03-22T06:59:21.546Z,7.85
2019-03-22T07:00:21.524Z,7.74
2019-03-22T07:01:21.528Z,7.79
2019-03-22T07:02:21.508Z,7.75
2019-03-22T07:03:21.495Z,7.72
2019-03-22T07:04:21.517Z,7.79
2019-03-22T07:05:21.474Z,7.87
2019-03-22T07:06:21.455Z,7.97
2019-03-22T07:07:21.489Z,8.01
2019-03-22T07:08:21.435Z,8.05
2019-03-22T07:09:21.424Z,8.08
2019-03-22T07:10:21.426Z,8.11
2019-03-22T07:11:21.399Z,8.29
2019-03-22T07:12:21.389Z,8.28
2019-03-22T07:13:21.405Z,8.29
2019-03-22T07:14:21.363Z,8.29
2019-03-22T07:15:21.355Z,8.36
2019-03-22T07:16:21.348Z,8.37
2019-03-22T07:17:21.335Z,8.28
2019-03-22T07:18:21.326Z,8.50
2019-03-22T07:19:21.309Z,8.36
2019-03-22T07:20:21.295Z,8.44
2019-03-22T07:21:21.313Z,8.47
2019-03-22T07:22:21.279Z,8.59
2019-03-22T07:23:21.265Z,8.63
2019-03-22T07:24:21.250Z,8.73
2019-03-22T07:25:21.241Z,8.76
2019-03-22T07:26:21.286Z,8.74
2019-03-22T07:27:21.218Z,8.92
2019-03-22T07:28:21.216Z,8.98
2019-03-22T07:29:21.197Z,9.02
2019-03-22T07:30:21.185Z,8.98
2019-03-22T07:31:21.176Z,9.05
2019-03-22T07:32:21.158Z,9.18
2019-03-22T07:33:21.149Z,9.31
2019-03-22T07:34:21.138Z,9.35
2019-03-22T07:35:21.128Z,9.42
2019-03-22T07:36:21.119Z,9.51
2019-03-22T07:37:21.107Z,9.50
2019-03-22T07:38:21.110Z,9.50
2019-03-22T07:39:21.133Z,9.58
2019-03-22T07:40:21.080Z,9.56
2019-03-22T07:41:21.070Z,9.54
2019-03-22T07:42:21.052Z,9.51
2019-03-22T07:43:21.166Z,9.53
2019-03-22T07:44:21.024Z,9.58
2019-03-22T07:45:21.025Z,9.68
2019-03-22T07:46:21.004Z,9.68
2019-03-22T07:47:21.008Z,9.90
2019-03-22T07:48:20.997Z,9.96
2019-03-22T07:49:20.967Z,10.05
2019-03-22T07:50:20.960Z,10.14
2019-03-22T07:51:20.948Z,10.08
2019-03-22T07:52:20.942Z,10.11
2019-03-22T07:53:21.001Z,10.08
2019-03-22T07:54:20.911Z,10.22
2019-03-22T07:55:20.903Z,10.30
2019-03-22T07:56:20.897Z,10.27
2019-03-22T07:57:20.881Z,10.55
2019-03-22T07:58:20.870Z,11.04
2019-03-22T07:59:20.864Z,11.64
2019-03-22T08:00:30.133Z,12.39
2019-03-22T08:01:21.843Z,12.82
2019-03-22T08:02:20.822Z,13.26
2019-03-22T08:03:20.820Z,13.62
2019-03-22T08:04:20.801Z,13.49
2019-03-22T08:05:20.789Z,13.55
2019-03-22T08:06:20.781Z,14.10
2019-03-22T08:07:20.766Z,14.55
2019-03-22T08:08:20.763Z,14.54
2019-03-22T08:09:20.753Z,14.69
2019-03-22T08:10:20.731Z,14.96
2019-03-22T08:11:20.791Z,15.21
2019-03-22T08:12:20.721Z,15.53
2019-03-22T08:13:20.707Z,15.59
2019-03-22T08:14:20.700Z,15.74
2019-03-22T08:15:20.677Z,16.33
2019-03-22T08:16:20.666Z,16.42
2019-03-22T08:17:20.653Z,16.15
2019-03-22T08:18:20.667Z,16.12
2019-03-22T08:19:20.663Z,15.72
2019-03-22T08:20:20.659Z,15.74
2019-03-22T08:21:20.622Z,15.83
2019-03-22T08:22:20.600Z,16.11
2019-03-22T08:23:20.599Z,16.14
2019-03-22T08:24:20.577Z,16.34
2019-03-22T08:25:20.606Z,16.28
2019-03-22T08:26:20.549Z,16.30
2019-03-22T08:27:20.553Z,16.50
2019-03-22T08:28:20.535Z,16.68
2019-03-22T08:29:20.528Z,16.75
2019-03-22T08:30:20.507Z,16.79
2019-03-22T08:31:20.533Z,17.04
2019-03-22T08:32:20.481Z,16.60
2019-03-22T08:33:20.511Z,16.48
2019-03-22T08:34:20.467Z,16.56
2019-03-22T08:35:20.460Z,16.68
2019-03-22T08:36:20.464Z,16.86
2019-03-22T08:37:20.429Z,17.00
2019-03-22T08:38:20.421Z,16.96
2019-03-22T08:39:20.448Z,17.11
2019-03-22T08:40:20.422Z,17.25
2019-03-22T08:41:20.381Z,17.07
2019-03-22T08:42:20.369Z,17.07
2019-03-22T08:43:20.357Z,16.96
2019-03-22T08:44:20.435Z,16.98
2019-03-22T08:45:20.363Z,17.04
2019-03-22T08:46:20.388Z,17.11
2019-03-22T08:47:32.834Z,17.21
2019-03-22T08:48:21.317Z,17.31
2019-03-22T08:49:20.364Z,17.54
2019-03-22T08:50:20.284Z,17.59
2019-03-22T08:51:20.267Z,17.59
2019-03-22T08:52:20.267Z,17.90
2019-03-22T08:53:20.264Z,18.11
2019-03-22T08:54:20.274Z,18.18
2019-03-22T08:55:20.221Z,18.32
2019-03-22T08:56:20.215Z,18.05
2019-03-22T08:57:20.267Z,17.86
2019-03-22T08:58:20.186Z,17.58
2019-03-22T08:59:20.184Z,17.33
2019-03-22T09:00:20.175Z,17.43
2019-03-22T09:01:20.156Z,17.62
2019-03-22T09:02:20.163Z,17.81
2019-03-22T09:03:20.163Z,17.87
2019-03-22T09:04:20.137Z,18.12
2019-03-22T09:05:20.122Z,18.44
2019-03-22T09:06:20.097Z,18.45
2019-03-22T09:07:20.087Z,18.48
2019-03-22T09:08:20.114Z,18.67
2019-03-22T09:09:20.082Z,18.67
2019-03-22T09:10:20.057Z,18.55
2019-03-22T09:11:20.045Z,18.65
2019-03-22T09:12:20.032Z,18.63
2019-03-22T09:13:20.042Z,18.60
2019-03-22T09:14:20.014Z,18.73
2019-03-22T09:15:20.003Z,18.65
2019-03-22T09:16:19.995Z,18.41
2019-03-22T09:17:20.031Z,18.65
2019-03-22T09:18:19.974Z,18.62
2019-03-22T09:19:19.958Z,18.52
2019-03-22T09:20:19.940Z,18.41
2019-03-22T09:21:19.932Z,18.27
2019-03-22T09:22:19.930Z,18.10
2019-03-22T09:23:19.940Z,18.07
2019-03-22T09:24:19.903Z,17.99
2019-03-22T09:25:19.910Z,17.99
2019-03-22T09:26:20.180Z,18.18
2019-03-22T09:27:19.870Z,17.90
2019-03-22T09:28:19.852Z,18.15
2019-03-22T09:29:19.844Z,18.15
2019-03-22T09:30:19.826Z,18.41
2019-03-22T09:31:19.815Z,18.54
2019-03-22T09:32:19.812Z,18.50
2019-03-22T09:33:19.815Z,18.30
2019-03-22T09:34:32.921Z,18.20
2019-03-22T09:35:20.788Z,18.47
2019-03-22T09:36:19.759Z,18.18
2019-03-22T09:37:19.775Z,18.33
2019-03-22T09:38:19.746Z,18.57
2019-03-22T09:39:19.743Z,18.67
2019-03-22T09:40:19.825Z,18.17
2019-03-22T09:41:19.702Z,18.25
2019-03-22T09:42:19.705Z,17.81
2019-03-22T09:43:19.703Z,17.86
2019-03-22T09:44:19.698Z,17.97
2019-03-22T09:45:19.675Z,18.14
2019-03-22T09:46:19.694Z,18.42
2019-03-22T09:47:19.632Z,18.78
2019-03-22T09:48:19.626Z,19.26
2019-03-22T09:49:19.673Z,19.62
2019-03-22T09:50:19.653Z,19.81
2019-03-22T09:51:19.591Z,19.98
2019-03-22T09:52:19.630Z,19.77
2019-03-22T09:53:19.566Z,19.77
2019-03-22T09:54:19.573Z,19.87
2019-03-22T09:55:19.563Z,20.11
2019-03-22T09:56:19.531Z,20.17
2019-03-22T09:57:19.524Z,19.86
2019-03-22T09:58:19.520Z,19.61
2019-03-22T09:59:19.523Z,19.62
2019-03-22T10:00:19.487Z,19.74
2019-03-22T10:01:24.039Z,19.41
2019-03-22T10:02:19.578Z,19.54
2019-03-22T10:03:19.484Z,19.46
2019-03-22T10:04:19.453Z,19.25
2019-03-22T10:05:19.476Z,19.11
2019-03-22T10:06:19.421Z,19.18
2019-03-22T10:07:19.415Z,19.22
2019-03-22T10:08:19.399Z,19.16
2019-03-22T10:09:19.410Z,18.88
2019-03-22T10:10:19.378Z,19.23
2019-03-22T10:11:19.368Z,19.33
2019-03-22T10:12:19.410Z,19.11
2019-03-22T10:13:19.346Z,19.21
2019-03-22T10:14:21.366Z,19.51
2019-03-22T10:15:19.341Z,19.76
2019-03-22T10:16:19.311Z,19.78
2019-03-22T10:17:19.298Z,20.11
2019-03-22T10:18:19.332Z,20.01
2019-03-22T10:19:19.285Z,19.78
2019-03-22T10:20:19.267Z,19.62
2019-03-22T10:21:22.708Z,19.47
2019-03-22T10:22:19.247Z,19.59
2019-03-22T10:23:22.236Z,19.62
2019-03-22T10:24:19.318Z,19.77
2019-03-22T10:25:19.245Z,19.66
2019-03-22T10:26:19.207Z,19.51
2019-03-22T10:27:19.228Z,19.55
2019-03-22T10:28:19.230Z,19.87
2019-03-22T10:29:19.254Z,20.17
2019-03-22T10:30:19.184Z,20.16
2019-03-22T10:31:19.180Z,20.01
2019-03-22T10:32:19.217Z,19.96
2019-03-22T10:33:22.951Z,20.11
2019-03-22T10:34:19.124Z,20.03
2019-03-22T10:35:25.734Z,20.08
2019-03-22T10:36:20.103Z,20.26
2019-03-22T10:37:19.085Z,20.36
2019-03-22T10:38:30.815Z,20.62
2019-03-22T10:39:20.067Z,20.52
2019-03-22T10:40:19.061Z,20.66
2019-03-22T10:41:19.056Z,20.47
2019-03-22T10:42:19.080Z,20.32
2019-03-22T10:43:19.030Z,20.18
2019-03-22T10:44:19.076Z,20.29
2019-03-22T10:45:18.999Z,20.29
2019-03-22T10:46:19.002Z,20.03
2019-03-22T10:47:19.040Z,19.84
2019-03-22T10:48:18.962Z,20.01
2019-03-22T10:49:18.954Z,20.24
2019-03-22T10:50:18.939Z,20.47
2019-03-22T10:51:21.407Z,20.67
2019-03-22T10:52:18.910Z,20.52
2019-03-22T10:53:18.924Z,20.61
2019-03-22T10:54:18.890Z,20.70
2019-03-22T10:55:29.735Z,20.84
2019-03-22T10:56:19.870Z,20.72
2019-03-22T10:57:18.852Z,20.69
2019-03-22T10:58:21.283Z,20.89
2019-03-22T10:59:18.834Z,21.43
2019-03-22T11:00:18.823Z,21.98
2019-03-22T11:01:18.834Z,22.15
2019-03-22T11:02:18.797Z,22.57
2019-03-22T11:03:18.789Z,23.02
2019-03-22T11:04:18.782Z,23.13
2019-03-22T11:05:18.781Z,23.28
2019-03-22T11:06:25.966Z,23.19
2019-03-22T11:07:19.794Z,22.70
2019-03-22T11:08:18.731Z,22.57
2019-03-22T11:09:18.718Z,22.79
2019-03-22T11:10:18.710Z,22.80
2019-03-22T11:11:18.695Z,23.22
2019-03-22T11:12:18.687Z,23.40
2019-03-22T11:13:18.680Z,23.17
2019-03-22T11:14:18.662Z,22.79
2019-03-22T11:15:18.654Z,22.57
2019-03-22T11:16:18.641Z,22.47
2019-03-22T11:17:18.631Z,21.90
2019-03-22T11:18:18.622Z,21.96
2019-03-22T11:19:18.607Z,22.02
2019-03-22T11:20:18.603Z,22.28
2019-03-22T11:21:18.585Z,22.52
2019-03-22T11:22:18.575Z,22.83
2019-03-22T11:23:18.565Z,23.15
2019-03-22T11:24:18.550Z,23.19
2019-03-22T11:25:18.551Z,22.95
2019-03-22T11:26:18.538Z,23.01
2019-03-22T11:27:18.522Z,22.77
2019-03-22T11:28:18.514Z,22.61
2019-03-22T11:29:18.500Z,22.00
2019-03-22T11:30:18.488Z,21.61
2019-03-22T11:31:27.341Z,21.46
2019-03-22T11:32:19.584Z,21.53
2019-03-22T11:33:18.453Z,21.43
2019-03-22T11:34:18.447Z,21.65
2019-03-22T11:35:18.444Z,21.84
2019-03-22T11:36:18.441Z,22.15
2019-03-22T11:37:18.410Z,22.21
2019-03-22T11:38:18.396Z,22.42
2019-03-22T11:39:18.420Z,22.02
2019-03-22T11:40:18.386Z,22.17
2019-03-22T11:41:18.365Z,22.02
2019-03-22T11:42:18.355Z,22.17
2019-03-22T11:43:18.357Z,22.12
2019-03-22T11:44:18.335Z,22.40
2019-03-22T11:45:18.326Z,22.54
2019-03-22T11:46:18.332Z,22.54
2019-03-22T11:47:18.300Z,22.46
2019-03-22T11:48:18.328Z,22.37
2019-03-22T11:49:18.274Z,22.31
2019-03-22T11:50:18.278Z,22.03
2019-03-22T11:51:18.259Z,21.86
2019-03-22T11:52:18.295Z,21.88
2019-03-22T11:53:18.241Z,21.88
2019-03-22T11:54:18.222Z,21.74
2019-03-22T11:55:18.218Z,21.43
2019-03-22T11:56:18.198Z,21.37
2019-03-22T11:57:18.185Z,21.44
2019-03-22T11:58:18.175Z,21.56
2019-03-22T11:59:18.165Z,21.69
2019-03-22T12:00:18.161Z,21.88
2019-03-22T12:01:21.314Z,21.71
2019-03-22T12:02:22.311Z,21.98
2019-03-22T12:03:18.120Z,22.22
2019-03-22T12:04:18.109Z,22.47
2019-03-22T12:05:18.120Z,22.70
2019-03-22T12:06:18.096Z,22.82
2019-03-22T12:07:18.074Z,23.01
2019-03-22T12:08:18.067Z,23.01
2019-03-22T12:09:18.058Z,23.01
2019-03-22T12:10:18.050Z,23.10
2019-03-22T12:11:18.031Z,23.09
2019-03-22T12:12:18.021Z,23.17
2019-03-22T12:13:18.011Z,23.47
2019-03-22T12:14:17.997Z,23.53
2019-03-22T12:15:18.131Z,23.53
2019-03-22T12:16:17.995Z,23.61
2019-03-22T12:17:18.019Z,23.33
2019-03-22T12:18:17.961Z,23.12
2019-03-22T12:19:17.943Z,22.75
2019-03-22T12:20:17.978Z,22.33
2019-03-22T12:21:17.946Z,22.00
2019-03-22T12:22:17.909Z,21.82
2019-03-22T12:23:17.898Z,21.86
2019-03-22T12:24:18.809Z,21.96
2019-03-22T12:25:17.884Z,22.27
2019-03-22T12:26:17.862Z,22.33
2019-03-22T12:27:17.854Z,22.47
2019-03-22T12:28:17.843Z,22.77
2019-03-22T12:29:17.832Z,23.02
2019-03-22T12:30:17.828Z,23.32
2019-03-22T12:31:19.442Z,23.50
2019-03-22T12:32:17.796Z,23.55
2019-03-22T12:33:17.789Z,23.66
2019-03-22T12:34:17.829Z,23.60
2019-03-22T12:35:17.779Z,23.35
2019-03-22T12:36:17.752Z,23.17
2019-03-22T12:37:17.739Z,23.55
2019-03-22T12:38:17.733Z,23.90
2019-03-22T12:39:17.718Z,24.18
2019-03-22T12:40:17.719Z,23.98
2019-03-22T12:41:17.701Z,23.72
2019-03-22T12:42:17.687Z,23.78
2019-03-22T12:43:17.675Z,23.93
2019-03-22T12:44:17.666Z,24.18
2019-03-22T12:45:17.668Z,24.05
2019-03-22T12:46:17.639Z,23.76
2019-03-22T12:47:17.628Z,23.58
2019-03-22T12:48:17.620Z,23.54
2019-03-22T12:49:17.613Z,23.66
2019-03-22T12:50:17.609Z,24.02
2019-03-22T12:51:17.587Z,24.32
2019-03-22T12:52:17.589Z,24.52
2019-03-22T12:53:17.563Z,24.61
2019-03-22T12:54:17.552Z,24.68
2019-03-22T12:55:17.555Z,24.65
2019-03-22T12:56:17.541Z,24.57
2019-03-22T12:57:17.520Z,24.37
2019-03-22T12:58:17.506Z,24.45
2019-03-22T12:59:17.495Z,24.18
2019-03-22T13:00:17.494Z,23.75
2019-03-22T13:01:17.478Z,23.47
2019-03-22T13:02:17.465Z,23.42
2019-03-22T13:03:17.467Z,23.19
2019-03-22T13:04:17.480Z,22.92
2019-03-22T13:05:17.443Z,22.64
2019-03-22T13:06:17.420Z,22.47
2019-03-22T13:07:17.405Z,22.22